Aviation Digital Data Service (ADDS)

Output produced by METARs form (1357 UTC 22 April 2019)
found at http://www.aviationweather.gov/metar/data/
 
METAR text: NZAA 221330Z AUTO 05003KT 9999 BKN075/// 12/12 Q1019 TEMPO 6000 SHRA FEW020TCU
Conditions at: NZAA (AUCKLAND INTL AR, NZ) observed 1330 UTC 22 April 2019
Temperature: 12.0°C (54°F)
Dewpoint: 12.0°C (54°F) [RH = 100%]
Pressure (altimeter): 30.09 inches Hg (1019.0 mb)
Winds: from the NE (50 degrees) at 3 MPH (3 knots; 1.5 m/s)
Visibility: 6 or more miles (10+ km)
Ceiling: 7500 feet AGL
Clouds: broken clouds at 7500 feet AGL
Weather: no significant weather observed at this time

METAR text: NZAA 221300Z AUTO 08003KT 9999 FEW060/// BKN075/// 13/12 Q1019 TEMPO 4000 +SHRA BKN012 FEW020CB
Conditions at: NZAA (AUCKLAND INTL AR, NZ) observed 1300 UTC 22 April 2019
Temperature: 13.0°C (55°F)
Dewpoint: 12.0°C (54°F) [RH = 94%]
Pressure (altimeter): 30.09 inches Hg (1019.0 mb)
Winds: from the E (80 degrees) at 3 MPH (3 knots; 1.5 m/s)
Visibility: 6 or more miles (10+ km)
Ceiling: 7500 feet AGL
Clouds: few clouds at 6000 feet AGL
broken clouds at 7500 feet AGL
Weather: no significant weather observed at this time

METAR text: NZAA 221230Z AUTO 11004KT 9999 BKN055/// BKN085/// 13/13 Q1020 TEMPO 4000 +SHRA BKN012 FEW020CB
Conditions at: NZAA (AUCKLAND INTL AR, NZ) observed 1230 UTC 22 April 2019
Temperature: 13.0°C (55°F)
Dewpoint: 13.0°C (55°F) [RH = 100%]
Pressure (altimeter): 30.12 inches Hg (1020.0 mb)
Winds: from the ESE (110 degrees) at 5 MPH (4 knots; 2.1 m/s)
Visibility: 6 or more miles (10+ km)
Ceiling: 5500 feet AGL
Clouds: broken clouds at 5500 feet AGL
broken clouds at 8500 feet AGL
Weather: no significant weather observed at this time

METAR text: NZAA 221200Z AUTO 08001KT 9999 BKN060/// OVC090/// 12/12 Q1020 TEMPO FM1230 4000 +SHRA BKN012 FEW020CB
Conditions at: NZAA (AUCKLAND INTL AR, NZ) observed 1200 UTC 22 April 2019
Temperature: 12.0°C (54°F)
Dewpoint: 12.0°C (54°F) [RH = 100%]
Pressure (altimeter): 30.12 inches Hg (1020.0 mb)
Winds: from the E (80 degrees) at 1 MPH (1 knots; 0.5 m/s)
Visibility: 6 or more miles (10+ km)
Ceiling: 6000 feet AGL
Clouds: broken clouds at 6000 feet AGL
overcast cloud deck at 9000 feet AGL
Weather: no significant weather observed at this time

METAR text: NZAA 221130Z AUTO 00000KT 9999 FEW060/// SCT090/// 12/12 Q1020 TEMPO FM1230 4000 +SHRA BKN012 FEW020CB
Conditions at: NZAA (AUCKLAND INTL AR, NZ) observed 1130 UTC 22 April 2019
Temperature: 12.0°C (54°F)
Dewpoint: 12.0°C (54°F) [RH = 100%]
Pressure (altimeter): 30.12 inches Hg (1020.0 mb)
Winds: calm
Visibility: 6 or more miles (10+ km)
Ceiling: at least 12,000 feet AGL
Clouds: few clouds at 6000 feet AGL
scattered clouds at 9000 feet AGL
Weather: no significant weather observed at this time

METAR text: NZAA 221100Z AUTO 04003KT 9999 BKN090/// 12/12 Q1019 TEMPO TL1200 2000 BR TEMPO FM1230 4000 +SHRA BKN012 FEW020CB
Conditions at: NZAA (AUCKLAND INTL AR, NZ) observed 1100 UTC 22 April 2019
Temperature: 12.0°C (54°F)
Dewpoint: 12.0°C (54°F) [RH = 100%]
Pressure (altimeter): 30.09 inches Hg (1019.0 mb)
Winds: from the NE (40 degrees) at 3 MPH (3 knots; 1.5 m/s)
Visibility: 6 or more miles (10+ km)
Ceiling: 9000 feet AGL
Clouds: broken clouds at 9000 feet AGL
Weather: no significant weather observed at this time

METAR text: NZAA 221030Z AUTO 27001KT 9999 SCT075/// 12/12 Q1019 TEMPO TL1200 2000 BR TEMPO FM1200 4000 +SHRA BKN012 FEW020CB
Conditions at: NZAA (AUCKLAND INTL AR, NZ) observed 1030 UTC 22 April 2019
Temperature: 12.0°C (54°F)
Dewpoint: 12.0°C (54°F) [RH = 100%]
Pressure (altimeter): 30.09 inches Hg (1019.0 mb)
Winds: from the W (270 degrees) at 1 MPH (1 knots; 0.5 m/s)
Visibility: 6 or more miles (10+ km)
Ceiling: at least 12,000 feet AGL
Clouds: scattered clouds at 7500 feet AGL
Weather: no significant weather observed at this time

METAR text: NZAA 221000Z AUTO 00000KT 9999 MIFG FEW017 12/12 Q1019 TEMPO 2000 BR
Conditions at: NZAA (AUCKLAND INTL AR, NZ) observed 1000 UTC 22 April 2019
Temperature: 12.0°C (54°F)
Dewpoint: 12.0°C (54°F) [RH = 100%]
Pressure (altimeter): 30.09 inches Hg (1019.0 mb)
Winds: calm
Visibility: 6 or more miles (10+ km)
Ceiling: at least 12,000 feet AGL
Clouds: few clouds at 1700 feet AGL
Weather: MIFG  (shallow fog)

METAR text: NZAA 220930Z AUTO 10002KT 9999 NCD 13/12 Q1019 NOSIG
Conditions at: NZAA (AUCKLAND INTL AR, NZ) observed 0930 UTC 22 April 2019
Temperature: 13.0°C (55°F)
Dewpoint: 12.0°C (54°F) [RH = 94%]
Pressure (altimeter): 30.09 inches Hg (1019.0 mb)
Winds: from the E (100 degrees) at 2 MPH (2 knots; 1.0 m/s)
Visibility: 6 or more miles (10+ km)
Ceiling: at least 12,000 feet AGL
Clouds: sky clear below 12,000 feet AGL
Weather: no significant weather observed at this time

METAR text: NZAA 220900Z AUTO 02002KT 9999 BKN022/// 13/13 Q1019 NOSIG
Conditions at: NZAA (AUCKLAND INTL AR, NZ) observed 0900 UTC 22 April 2019
Temperature: 13.0°C (55°F)
Dewpoint: 13.0°C (55°F) [RH = 100%]
Pressure (altimeter): 30.09 inches Hg (1019.0 mb)
Winds: from the NNE (20 degrees) at 2 MPH (2 knots; 1.0 m/s)
Visibility: 6 or more miles (10+ km)
Ceiling: 2200 feet AGL
Clouds: broken clouds at 2200 feet AGL
Weather: no significant weather observed at this time

METAR text: NZAA 220830Z AUTO 03002KT 9999 BKN020/// 13/13 Q1019 NOSIG
Conditions at: NZAA (AUCKLAND INTL AR, NZ) observed 0830 UTC 22 April 2019
Temperature: 13.0°C (55°F)
Dewpoint: 13.0°C (55°F) [RH = 100%]
Pressure (altimeter): 30.09 inches Hg (1019.0 mb)
Winds: from the NNE (30 degrees) at 2 MPH (2 knots; 1.0 m/s)
Visibility: 6 or more miles (10+ km)
Ceiling: 2000 feet AGL
Clouds: broken clouds at 2000 feet AGL
Weather: no significant weather observed at this time

METAR text: NZAA 220800Z AUTO 02003KT 9999 NCD 13/13 Q1019 NOSIG
Conditions at: NZAA (AUCKLAND INTL AR, NZ) observed 0800 UTC 22 April 2019
Temperature: 13.0°C (55°F)
Dewpoint: 13.0°C (55°F) [RH = 100%]
Pressure (altimeter): 30.09 inches Hg (1019.0 mb)
Winds: from the NNE (20 degrees) at 3 MPH (3 knots; 1.5 m/s)
Visibility: 6 or more miles (10+ km)
Ceiling: at least 12,000 feet AGL
Clouds: sky clear below 12,000 feet AGL
Weather: no significant weather observed at this time

METAR text: NZAA 220730Z AUTO 35003KT 9999 BKN100/// 13/13 Q1019 NOSIG
Conditions at: NZAA (AUCKLAND INTL AR, NZ) observed 0730 UTC 22 April 2019
Temperature: 13.0°C (55°F)
Dewpoint: 13.0°C (55°F) [RH = 100%]
Pressure (altimeter): 30.09 inches Hg (1019.0 mb)
Winds: from the N (350 degrees) at 3 MPH (3 knots; 1.5 m/s)
Visibility: 6 or more miles (10+ km)
Ceiling: 10000 feet AGL
Clouds: broken clouds at 10000 feet AGL
Weather: no significant weather observed at this time

METAR text: NZAA 220700Z AUTO 04005KT 010V080 9999 FEW060/// BKN095/// 13/13 Q1019 NOSIG
Conditions at: NZAA (AUCKLAND INTL AR, NZ) observed 0700 UTC 22 April 2019
Temperature: 13.0°C (55°F)
Dewpoint: 13.0°C (55°F) [RH = 100%]
Pressure (altimeter): 30.09 inches Hg (1019.0 mb)
Winds: from the NE (40 degrees) at 6 MPH (5 knots; 2.6 m/s)
Visibility: 6 or more miles (10+ km)
Ceiling: 9500 feet AGL
Clouds: few clouds at 6000 feet AGL
broken clouds at 9500 feet AGL
Weather: no significant weather observed at this time

METAR text: NZAA 220630Z AUTO 05006KT 9999 -RA BKN060/// BKN090/// 14/13 Q1019 TEMPO 4000 +RA BKN012 FEW020CB
Conditions at: NZAA (AUCKLAND INTL AR, NZ) observed 0630 UTC 22 April 2019
Temperature: 14.0°C (57°F)
Dewpoint: 13.0°C (55°F) [RH = 94%]
Pressure (altimeter): 30.09 inches Hg (1019.0 mb)
Winds: from the NE (50 degrees) at 7 MPH (6 knots; 3.1 m/s)
Visibility: 6 or more miles (10+ km)
Ceiling: 6000 feet AGL
Clouds: broken clouds at 6000 feet AGL
broken clouds at 9000 feet AGL
Weather: -RA  (light rain)

METAR text: NZAA 220600Z AUTO 04006KT 9999 -RA BKN095/// 14/13 Q1019 TEMPO 4000 +RA BKN012 FEW020CB
Conditions at: NZAA (AUCKLAND INTL AR, NZ) observed 0600 UTC 22 April 2019
Temperature: 14.0°C (57°F)
Dewpoint: 13.0°C (55°F) [RH = 94%]
Pressure (altimeter): 30.09 inches Hg (1019.0 mb)
Winds: from the NE (40 degrees) at 7 MPH (6 knots; 3.1 m/s)
Visibility: 6 or more miles (10+ km)
Ceiling: 9500 feet AGL
Clouds: broken clouds at 9500 feet AGL
Weather: -RA  (light rain)

METAR text: NZAA 220530Z AUTO 04005KT 9999 -RA OVC080/// 14/13 Q1019 TEMPO 4000 +RA BKN012 FEW020CB
Conditions at: NZAA (AUCKLAND INTL AR, NZ) observed 0530 UTC 22 April 2019
Temperature: 14.0°C (57°F)
Dewpoint: 13.0°C (55°F) [RH = 94%]
Pressure (altimeter): 30.09 inches Hg (1019.0 mb)
Winds: from the NE (40 degrees) at 6 MPH (5 knots; 2.6 m/s)
Visibility: 6 or more miles (10+ km)
Ceiling: 8000 feet AGL
Clouds: overcast cloud deck at 8000 feet AGL
Weather: -RA  (light rain)

METAR text: NZAA 220500Z AUTO 06006KT 020V090 8000 RA FEW060/// OVC070/// 14/14 Q1020 TEMPO 4000 +RA BKN008 FEW020CB
Conditions at: NZAA (AUCKLAND INTL AR, NZ) observed 0500 UTC 22 April 2019
Temperature: 14.0°C (57°F)
Dewpoint: 14.0°C (57°F) [RH = 100%]
Pressure (altimeter): 30.12 inches Hg (1020.0 mb)
Winds: from the ENE (60 degrees) at 7 MPH (6 knots; 3.1 m/s)
Visibility: 5 miles ( 8 km)
Ceiling: 7000 feet AGL
Clouds: few clouds at 6000 feet AGL
overcast cloud deck at 7000 feet AGL
Weather: RA  (moderate rain)

METAR text: NZAA 220430Z AUTO 06007KT 6000 RA OVC070/// 14/14 Q1019 TEMPO 4000 +RA BKN008 FEW020CB
Conditions at: NZAA (AUCKLAND INTL AR, NZ) observed 0430 UTC 22 April 2019
Temperature: 14.0°C (57°F)
Dewpoint: 14.0°C (57°F) [RH = 100%]
Pressure (altimeter): 30.09 inches Hg (1019.0 mb)
Winds: from the ENE (60 degrees) at 8 MPH (7 knots; 3.6 m/s)
Visibility: 4 miles ( 6 km)
Ceiling: 7000 feet AGL
Clouds: overcast cloud deck at 7000 feet AGL
Weather: RA  (moderate rain)

METAR text: NZAA 220400Z AUTO 07004KT 030V100 9999 -RA OVC070/// 14/13 Q1020 TEMPO 4000 +RA BKN008 FEW020CB
Conditions at: NZAA (AUCKLAND INTL AR, NZ) observed 0400 UTC 22 April 2019
Temperature: 14.0°C (57°F)
Dewpoint: 13.0°C (55°F) [RH = 94%]
Pressure (altimeter): 30.12 inches Hg (1020.0 mb)
Winds: from the ENE (70 degrees) at 5 MPH (4 knots; 2.1 m/s)
Visibility: 6 or more miles (10+ km)
Ceiling: 7000 feet AGL
Clouds: overcast cloud deck at 7000 feet AGL
Weather: -RA  (light rain)

METAR text: NZAA 220330Z AUTO 32003KT 7000 RA BKN075/// 15/13 Q1020 TEMPO 4000 +RA BKN008 FEW020CB
Conditions at: NZAA (AUCKLAND INTL AR, NZ) observed 0330 UTC 22 April 2019
Temperature: 15.0°C (59°F)
Dewpoint: 13.0°C (55°F) [RH = 88%]
Pressure (altimeter): 30.12 inches Hg (1020.0 mb)
Winds: from the NW (320 degrees) at 3 MPH (3 knots; 1.5 m/s)
Visibility: 4 miles ( 7 km)
Ceiling: 7500 feet AGL
Clouds: broken clouds at 7500 feet AGL
Weather: RA  (moderate rain)

METAR text: NZAA 220300Z AUTO 31007KT 9999 -RA OVC075/// 15/14 Q1020 TEMPO 4000 +RA BKN008 FEW020CB
Conditions at: NZAA (AUCKLAND INTL AR, NZ) observed 0300 UTC 22 April 2019
Temperature: 15.0°C (59°F)
Dewpoint: 14.0°C (57°F) [RH = 94%]
Pressure (altimeter): 30.12 inches Hg (1020.0 mb)
Winds: from the NW (310 degrees) at 8 MPH (7 knots; 3.6 m/s)
Visibility: 6 or more miles (10+ km)
Ceiling: 7500 feet AGL
Clouds: overcast cloud deck at 7500 feet AGL
Weather: -RA  (light rain)

METAR text: NZAA 220230Z AUTO 34005KT 300V010 9999 -RA BKN080/// OVC090/// 16/14 Q1020 TEMPO 4000 +RA BKN008 FEW020CB
Conditions at: NZAA (AUCKLAND INTL AR, NZ) observed 0230 UTC 22 April 2019
Temperature: 16.0°C (61°F)
Dewpoint: 14.0°C (57°F) [RH = 88%]
Pressure (altimeter): 30.12 inches Hg (1020.0 mb)
Winds: from the NNW (340 degrees) at 6 MPH (5 knots; 2.6 m/s)
Visibility: 6 or more miles (10+ km)
Ceiling: 8000 feet AGL
Clouds: broken clouds at 8000 feet AGL
overcast cloud deck at 9000 feet AGL
Weather: -RA  (light rain)

METAR text: NZAA 220200Z AUTO 32006KT 290V360 9999 -RA SCT070/// BKN085/// 17/14 Q1020 TEMPO 4000 +RA BKN008 FEW020CB
Conditions at: NZAA (AUCKLAND INTL AR, NZ) observed 0200 UTC 22 April 2019
Temperature: 17.0°C (63°F)
Dewpoint: 14.0°C (57°F) [RH = 82%]
Pressure (altimeter): 30.12 inches Hg (1020.0 mb)
Winds: from the NW (320 degrees) at 7 MPH (6 knots; 3.1 m/s)
Visibility: 6 or more miles (10+ km)
Ceiling: 8500 feet AGL
Clouds: scattered clouds at 7000 feet AGL
broken clouds at 8500 feet AGL
Weather: -RA  (light rain)

METAR text: NZAA 220130Z AUTO 29009KT 9999 -RA BKN060/// 16/14 Q1020 TEMPO 4000 +RA BKN008 FEW020CB
Conditions at: NZAA (AUCKLAND INTL AR, NZ) observed 0130 UTC 22 April 2019
Temperature: 16.0°C (61°F)
Dewpoint: 14.0°C (57°F) [RH = 88%]
Pressure (altimeter): 30.12 inches Hg (1020.0 mb)
Winds: from the WNW (290 degrees) at 10 MPH (9 knots; 4.6 m/s)
Visibility: 6 or more miles (10+ km)
Ceiling: 6000 feet AGL
Clouds: broken clouds at 6000 feet AGL
Weather: -RA  (light rain)

METAR text: NZAA 220100Z AUTO 32009KT 9999 -RA FEW055/// BKN070/// 17/14 Q1020 TEMPO 4000 +RA BKN008 FEW020CB
Conditions at: NZAA (AUCKLAND INTL AR, NZ) observed 0100 UTC 22 April 2019
Temperature: 17.0°C (63°F)
Dewpoint: 14.0°C (57°F) [RH = 82%]
Pressure (altimeter): 30.12 inches Hg (1020.0 mb)
Winds: from the NW (320 degrees) at 10 MPH (9 knots; 4.6 m/s)
Visibility: 6 or more miles (10+ km)
Ceiling: 7000 feet AGL
Clouds: few clouds at 5500 feet AGL
broken clouds at 7000 feet AGL
Weather: -RA  (light rain)

METAR text: NZAA 220030Z AUTO 32009KT 290V350 9999 FEW050/// BKN070/// OVC085/// 18/13 Q1021 TEMPO 4000 +RA BKN008 FEW020CB
Conditions at: NZAA (AUCKLAND INTL AR, NZ) observed 0030 UTC 22 April 2019
Temperature: 18.0°C (64°F)
Dewpoint: 13.0°C (55°F) [RH = 73%]
Pressure (altimeter): 30.15 inches Hg (1021.0 mb)
Winds: from the NW (320 degrees) at 10 MPH (9 knots; 4.6 m/s)
Visibility: 6 or more miles (10+ km)
Ceiling: 7000 feet AGL
Clouds: few clouds at 5000 feet AGL
broken clouds at 7000 feet AGL
overcast cloud deck at 8500 feet AGL
Weather: no significant weather observed at this time

METAR text: NZAA 220000Z AUTO 34007KT 9999 -RA SCT050/// BKN065/// 17/14 Q1021 REDZ TEMPO 4000 +RA BKN008 FEW020CB
Conditions at: NZAA (AUCKLAND INTL AR, NZ) observed 0000 UTC 22 April 2019
Temperature: 17.0°C (63°F)
Dewpoint: 14.0°C (57°F) [RH = 82%]
Pressure (altimeter): 30.15 inches Hg (1021.0 mb)
Winds: from the NNW (340 degrees) at 8 MPH (7 knots; 3.6 m/s)
Visibility: 6 or more miles (10+ km)
Ceiling: 6500 feet AGL
Clouds: scattered clouds at 5000 feet AGL
broken clouds at 6500 feet AGL
Weather: -RA  (light rain)

METAR text: NZAA 212330Z AUTO 35005KT 310V020 9999 BKN049/// 17/14 Q1021 TEMPO 4000 +RA BKN008 FEW020CB
Conditions at: NZAA (AUCKLAND INTL AR, NZ) observed 2330 UTC 21 April 2019
Temperature: 17.0°C (63°F)
Dewpoint: 14.0°C (57°F) [RH = 82%]
Pressure (altimeter): 30.15 inches Hg (1021.0 mb)
Winds: from the N (350 degrees) at 6 MPH (5 knots; 2.6 m/s)
Visibility: 6 or more miles (10+ km)
Ceiling: 4900 feet AGL
Clouds: broken clouds at 4900 feet AGL
Weather: no significant weather observed at this time

METAR text: NZAA 212300Z AUTO 35004KT 300V020 9999 BKN041/// OVC049/// 17/14 Q1022 TEMPO 4000 +RA BKN008 FEW020CB
Conditions at: NZAA (AUCKLAND INTL AR, NZ) observed 2300 UTC 21 April 2019
Temperature: 17.0°C (63°F)
Dewpoint: 14.0°C (57°F) [RH = 82%]
Pressure (altimeter): 30.18 inches Hg (1022.0 mb)
Winds: from the N (350 degrees) at 5 MPH (4 knots; 2.1 m/s)
Visibility: 6 or more miles (10+ km)
Ceiling: 4100 feet AGL
Clouds: broken clouds at 4100 feet AGL
overcast cloud deck at 4900 feet AGL
Weather: no significant weather observed at this time

METAR text: NZAA 212230Z AUTO 03004KT 340V060 9999 FEW009/// OVC042/// 16/15 Q1021 TEMPO 4000 +RA BKN008 FEW020CB
Conditions at: NZAA (AUCKLAND INTL AR, NZ) observed 2230 UTC 21 April 2019
Temperature: 16.0°C (61°F)
Dewpoint: 15.0°C (59°F) [RH = 94%]
Pressure (altimeter): 30.15 inches Hg (1021.0 mb)
Winds: from the NNE (30 degrees) at 5 MPH (4 knots; 2.1 m/s)
Visibility: 6 or more miles (10+ km)
Ceiling: 4200 feet AGL
Clouds: few clouds at 900 feet AGL
overcast cloud deck at 4200 feet AGL
Weather: no significant weather observed at this time

METAR text: NZAA 212200Z AUTO 29005KT 260V330 7000 -RA SCT008/// BKN037/// OVC044/// 16/15 Q1022 TEMPO 4000 +RA BKN008 FEW020CB
Conditions at: NZAA (AUCKLAND INTL AR, NZ) observed 2200 UTC 21 April 2019
Temperature: 16.0°C (61°F)
Dewpoint: 15.0°C (59°F) [RH = 94%]
Pressure (altimeter): 30.18 inches Hg (1022.0 mb)
Winds: from the WNW (290 degrees) at 6 MPH (5 knots; 2.6 m/s)
Visibility: 4 miles ( 7 km)
Ceiling: 3700 feet AGL
Clouds: scattered clouds at 800 feet AGL
broken clouds at 3700 feet AGL
overcast cloud deck at 4400 feet AGL
Weather: -RA  (light rain)

METAR text: NZAA 212130Z AUTO 00000KT 9999 -RA SCT008/// BKN014/// OVC039/// 16/15 Q1022 TEMPO 4000 +RA BKN008 FEW020CB
Conditions at: NZAA (AUCKLAND INTL AR, NZ) observed 2130 UTC 21 April 2019
Temperature: 16.0°C (61°F)
Dewpoint: 15.0°C (59°F) [RH = 94%]
Pressure (altimeter): 30.18 inches Hg (1022.0 mb)
Winds: calm
Visibility: 6 or more miles (10+ km)
Ceiling: 1400 feet AGL
Clouds: scattered clouds at 800 feet AGL
broken clouds at 1400 feet AGL
overcast cloud deck at 3900 feet AGL
Weather: -RA  (light rain)

METAR text: NZAA 212100Z AUTO 10003KT 9999 -RA FEW023/// SCT034/// BKN041/// 16/15 Q1021 REDZ TEMPO 4000 +RA BKN008 FEW020CB
Conditions at: NZAA (AUCKLAND INTL AR, NZ) observed 2100 UTC 21 April 2019
Temperature: 16.0°C (61°F)
Dewpoint: 15.0°C (59°F) [RH = 94%]
Pressure (altimeter): 30.15 inches Hg (1021.0 mb)
Winds: from the E (100 degrees) at 3 MPH (3 knots; 1.5 m/s)
Visibility: 6 or more miles (10+ km)
Ceiling: 4100 feet AGL
Clouds: few clouds at 2300 feet AGL
scattered clouds at 3400 feet AGL
broken clouds at 4100 feet AGL
Weather: -RA  (light rain)

METAR text: NZAA 212030Z AUTO 17003KT 9999 FEW010/// BKN025/// OVC033/// 15/15 Q1021 TEMPO 4000 +RA BKN008 FEW020CB
Conditions at: NZAA (AUCKLAND INTL AR, NZ) observed 2030 UTC 21 April 2019
Temperature: 15.0°C (59°F)
Dewpoint: 15.0°C (59°F) [RH = 100%]
Pressure (altimeter): 30.15 inches Hg (1021.0 mb)
Winds: from the S (170 degrees) at 3 MPH (3 knots; 1.5 m/s)
Visibility: 6 or more miles (10+ km)
Ceiling: 2500 feet AGL
Clouds: few clouds at 1000 feet AGL
broken clouds at 2500 feet AGL
overcast cloud deck at 3300 feet AGL
Weather: no significant weather observed at this time

METAR text: NZAA 212000Z AUTO 17003KT 9999 BKN010/// BKN026/// 15/15 Q1021 TEMPO 4000 +RA BKN008 FEW020CB
Conditions at: NZAA (AUCKLAND INTL AR, NZ) observed 2000 UTC 21 April 2019
Temperature: 15.0°C (59°F)
Dewpoint: 15.0°C (59°F) [RH = 100%]
Pressure (altimeter): 30.15 inches Hg (1021.0 mb)
Winds: from the S (170 degrees) at 3 MPH (3 knots; 1.5 m/s)
Visibility: 6 or more miles (10+ km)
Ceiling: 1000 feet AGL
Clouds: broken clouds at 1000 feet AGL
broken clouds at 2600 feet AGL
Weather: no significant weather observed at this time

METAR text: NZAA 211930Z AUTO 16004KT 9999 BKN012/// 15/14 Q1021 TEMPO 4000 +RA BKN008 FEW020CB
Conditions at: NZAA (AUCKLAND INTL AR, NZ) observed 1930 UTC 21 April 2019
Temperature: 15.0°C (59°F)
Dewpoint: 14.0°C (57°F) [RH = 94%]
Pressure (altimeter): 30.15 inches Hg (1021.0 mb)
Winds: from the SSE (160 degrees) at 5 MPH (4 knots; 2.1 m/s)
Visibility: 6 or more miles (10+ km)
Ceiling: 1200 feet AGL
Clouds: broken clouds at 1200 feet AGL
Weather: no significant weather observed at this time

METAR text: NZAA 211900Z AUTO 23002KT 9999 +DZ SCT007/// BKN012/// BKN017/// 15/14 Q1021 TEMPO 4000 +RA BKN008 FEW020CB
Conditions at: NZAA (AUCKLAND INTL AR, NZ) observed 1900 UTC 21 April 2019
Temperature: 15.0°C (59°F)
Dewpoint: 14.0°C (57°F) [RH = 94%]
Pressure (altimeter): 30.15 inches Hg (1021.0 mb)
Winds: from the SW (230 degrees) at 2 MPH (2 knots; 1.0 m/s)
Visibility: 6 or more miles (10+ km)
Ceiling: 1200 feet AGL
Clouds: scattered clouds at 700 feet AGL
broken clouds at 1200 feet AGL
broken clouds at 1700 feet AGL
Weather: +DZ  (heavy drizzle)

METAR text: NZAA 211830Z AUTO 16003KT 7000 -RA FEW008/// BKN050/// OVC070/// 15/15 Q1021 REDZ TEMPO 4000 +RA BKN008 FEW020CB
Conditions at: NZAA (AUCKLAND INTL AR, NZ) observed 1830 UTC 21 April 2019
Temperature: 15.0°C (59°F)
Dewpoint: 15.0°C (59°F) [RH = 100%]
Pressure (altimeter): 30.15 inches Hg (1021.0 mb)
Winds: from the SSE (160 degrees) at 3 MPH (3 knots; 1.5 m/s)
Visibility: 4 miles ( 7 km)
Ceiling: 5000 feet AGL
Clouds: few clouds at 800 feet AGL
broken clouds at 5000 feet AGL
overcast cloud deck at 7000 feet AGL
Weather: -RA  (light rain)

METAR text: NZAA 211800Z AUTO 21003KT 9000 -RA FEW015/// BKN060/// OVC070/// 16/15 Q1021 TEMPO 4000 +RA BKN008 FEW020CB
Conditions at: NZAA (AUCKLAND INTL AR, NZ) observed 1800 UTC 21 April 2019
Temperature: 16.0°C (61°F)
Dewpoint: 15.0°C (59°F) [RH = 94%]
Pressure (altimeter): 30.15 inches Hg (1021.0 mb)
Winds: from the SSW (210 degrees) at 3 MPH (3 knots; 1.5 m/s)
Visibility: 6 miles ( 9 km)
Ceiling: 6000 feet AGL
Clouds: few clouds at 1500 feet AGL
broken clouds at 6000 feet AGL
overcast cloud deck at 7000 feet AGL
Weather: -RA  (light rain)

METAR text: NZAA 211730Z AUTO 29005KT 9999 DZ FEW065/// OVC080/// 16/14 Q1021 TEMPO 4000 +RA BKN012 FEW020CB
Conditions at: NZAA (AUCKLAND INTL AR, NZ) observed 1730 UTC 21 April 2019
Temperature: 16.0°C (61°F)
Dewpoint: 14.0°C (57°F) [RH = 88%]
Pressure (altimeter): 30.15 inches Hg (1021.0 mb)
Winds: from the WNW (290 degrees) at 6 MPH (5 knots; 2.6 m/s)
Visibility: 6 or more miles (10+ km)
Ceiling: 8000 feet AGL
Clouds: few clouds at 6500 feet AGL
overcast cloud deck at 8000 feet AGL
Weather: DZ  (moderate drizzle)

METAR text: NZAA 211700Z AUTO 31004KT 9999 FEW080/// 16/13 Q1021 TEMPO 4000 +RA BKN012 FEW020CB
Conditions at: NZAA (AUCKLAND INTL AR, NZ) observed 1700 UTC 21 April 2019
Temperature: 16.0°C (61°F)
Dewpoint: 13.0°C (55°F) [RH = 82%]
Pressure (altimeter): 30.15 inches Hg (1021.0 mb)
Winds: from the NW (310 degrees) at 5 MPH (4 knots; 2.1 m/s)
Visibility: 6 or more miles (10+ km)
Ceiling: at least 12,000 feet AGL
Clouds: few clouds at 8000 feet AGL
Weather: no significant weather observed at this time

METAR text: NZAA 211630Z AUTO 36003KT 9999 BKN080/// 16/14 Q1020 TEMPO 4000 +RA BKN012 FEW020CB
Conditions at: NZAA (AUCKLAND INTL AR, NZ) observed 1630 UTC 21 April 2019
Temperature: 16.0°C (61°F)
Dewpoint: 14.0°C (57°F) [RH = 88%]
Pressure (altimeter): 30.12 inches Hg (1020.0 mb)
Winds: from the N (360 degrees) at 3 MPH (3 knots; 1.5 m/s)
Visibility: 6 or more miles (10+ km)
Ceiling: 8000 feet AGL
Clouds: broken clouds at 8000 feet AGL
Weather: no significant weather observed at this time

METAR text: NZAA 211600Z AUTO 36005KT 9999 OVC080/// 16/13 Q1021 TEMPO 4000 +RA BKN012 FEW020CB
Conditions at: NZAA (AUCKLAND INTL AR, NZ) observed 1600 UTC 21 April 2019
Temperature: 16.0°C (61°F)
Dewpoint: 13.0°C (55°F) [RH = 82%]
Pressure (altimeter): 30.15 inches Hg (1021.0 mb)
Winds: from the N (360 degrees) at 6 MPH (5 knots; 2.6 m/s)
Visibility: 6 or more miles (10+ km)
Ceiling: 8000 feet AGL
Clouds: overcast cloud deck at 8000 feet AGL
Weather: no significant weather observed at this time

METAR text: NZAA 211530Z AUTO 35006KT 9999 BKN085/// 17/13 Q1021 TEMPO 4000 +RA BKN012 FEW020CB
Conditions at: NZAA (AUCKLAND INTL AR, NZ) observed 1530 UTC 21 April 2019
Temperature: 17.0°C (63°F)
Dewpoint: 13.0°C (55°F) [RH = 77%]
Pressure (altimeter): 30.15 inches Hg (1021.0 mb)
Winds: from the N (350 degrees) at 7 MPH (6 knots; 3.1 m/s)
Visibility: 6 or more miles (10+ km)
Ceiling: 8500 feet AGL
Clouds: broken clouds at 8500 feet AGL
Weather: no significant weather observed at this time

METAR text: NZAA 211500Z AUTO 36006KT 9999 BKN080/// 17/13 Q1021 TEMPO 4000 +RA BKN012 FEW020CB
Conditions at: NZAA (AUCKLAND INTL AR, NZ) observed 1500 UTC 21 April 2019
Temperature: 17.0°C (63°F)
Dewpoint: 13.0°C (55°F) [RH = 77%]
Pressure (altimeter): 30.15 inches Hg (1021.0 mb)
Winds: from the N (360 degrees) at 7 MPH (6 knots; 3.1 m/s)
Visibility: 6 or more miles (10+ km)
Ceiling: 8000 feet AGL
Clouds: broken clouds at 8000 feet AGL
Weather: no significant weather observed at this time

METAR text: NZAA 211430Z AUTO 36006KT 9999 SCT037/// BKN075/// BKN090/// 16/13 Q1021 TEMPO 4000 +RA BKN012 FEW020CB
Conditions at: NZAA (AUCKLAND INTL AR, NZ) observed 1430 UTC 21 April 2019
Temperature: 16.0°C (61°F)
Dewpoint: 13.0°C (55°F) [RH = 82%]
Pressure (altimeter): 30.15 inches Hg (1021.0 mb)
Winds: from the N (360 degrees) at 7 MPH (6 knots; 3.1 m/s)
Visibility: 6 or more miles (10+ km)
Ceiling: 7500 feet AGL
Clouds: scattered clouds at 3700 feet AGL
broken clouds at 7500 feet AGL
broken clouds at 9000 feet AGL
Weather: no significant weather observed at this time

METAR text: NZAA 211400Z AUTO 34010KT 9999 FEW040/// SCT050/// OVC070/// 17/13 Q1022 TEMPO 4000 +RA BKN012 FEW020CB
Conditions at: NZAA (AUCKLAND INTL AR, NZ) observed 1400 UTC 21 April 2019
Temperature: 17.0°C (63°F)
Dewpoint: 13.0°C (55°F) [RH = 77%]
Pressure (altimeter): 30.18 inches Hg (1022.0 mb)
Winds: from the NNW (340 degrees) at 12 MPH (10 knots; 5.1 m/s)
Visibility: 6 or more miles (10+ km)
Ceiling: 7000 feet AGL
Clouds: few clouds at 4000 feet AGL
scattered clouds at 5000 feet AGL
overcast cloud deck at 7000 feet AGL
Weather: no significant weather observed at this time

METAR text: NZAA 211330Z AUTO 34013KT 9999 -RA BKN060/// 16/13 Q1022 TEMPO TL1500 6000 SHRA TEMPO FM1500 4000 +RA BKN012 FEW020CB
Conditions at: NZAA (AUCKLAND INTL AR, NZ) observed 1330 UTC 21 April 2019
Temperature: 16.0°C (61°F)
Dewpoint: 13.0°C (55°F) [RH = 82%]
Pressure (altimeter): 30.18 inches Hg (1022.0 mb)
Winds: from the NNW (340 degrees) at 15 MPH (13 knots; 6.7 m/s)
Visibility: 6 or more miles (10+ km)
Ceiling: 6000 feet AGL
Clouds: broken clouds at 6000 feet AGL
Weather: -RA  (light rain)

METAR text: NZAA 211300Z AUTO 36017G27KT 9999 -RA BKN046/// BKN060/// 17/13 Q1022 TEMPO 6000 SHRA
Conditions at: NZAA (AUCKLAND INTL AR, NZ) observed 1300 UTC 21 April 2019
Temperature: 17.0°C (63°F)
Dewpoint: 13.0°C (55°F) [RH = 77%]
Pressure (altimeter): 30.18 inches Hg (1022.0 mb)
Winds: from the N (360 degrees) at 20 MPH (17 knots; 8.7 m/s)
gusting to 31 MPH (27 knots; 13.9 m/s)
Visibility: 6 or more miles (10+ km)
Ceiling: 4600 feet AGL
Clouds: broken clouds at 4600 feet AGL
broken clouds at 6000 feet AGL
Weather: -RA  (light rain)

METAR text: NZAA 211230Z AUTO 36010KT 9999 SCT023/// BKN060/// 18/14 Q1022 TEMPO 6000 SHRA
Conditions at: NZAA (AUCKLAND INTL AR, NZ) observed 1230 UTC 21 April 2019
Temperature: 18.0°C (64°F)
Dewpoint: 14.0°C (57°F) [RH = 77%]
Pressure (altimeter): 30.18 inches Hg (1022.0 mb)
Winds: from the N (360 degrees) at 12 MPH (10 knots; 5.1 m/s)
Visibility: 6 or more miles (10+ km)
Ceiling: 6000 feet AGL
Clouds: scattered clouds at 2300 feet AGL
broken clouds at 6000 feet AGL
Weather: no significant weather observed at this time

METAR text: NZAA 211200Z AUTO 35010KT 9999 SCT065/// BKN080/// 18/15 Q1021 TEMPO 6000 SHRA
Conditions at: NZAA (AUCKLAND INTL AR, NZ) observed 1200 UTC 21 April 2019
Temperature: 18.0°C (64°F)
Dewpoint: 15.0°C (59°F) [RH = 83%]
Pressure (altimeter): 30.15 inches Hg (1021.0 mb)
Winds: from the N (350 degrees) at 12 MPH (10 knots; 5.1 m/s)
Visibility: 6 or more miles (10+ km)
Ceiling: 8000 feet AGL
Clouds: scattered clouds at 6500 feet AGL
broken clouds at 8000 feet AGL
Weather: no significant weather observed at this time

METAR text: NZAA 211130Z AUTO 02010KT 350V080 9999 SCT050/// BKN075/// OVC085/// 18/14 Q1022 NOSIG
Conditions at: NZAA (AUCKLAND INTL AR, NZ) observed 1130 UTC 21 April 2019
Temperature: 18.0°C (64°F)
Dewpoint: 14.0°C (57°F) [RH = 77%]
Pressure (altimeter): 30.18 inches Hg (1022.0 mb)
Winds: from the NNE (20 degrees) at 12 MPH (10 knots; 5.1 m/s)
Visibility: 6 or more miles (10+ km)
Ceiling: 7500 feet AGL
Clouds: scattered clouds at 5000 feet AGL
broken clouds at 7500 feet AGL
overcast cloud deck at 8500 feet AGL
Weather: no significant weather observed at this time

METAR text: NZAA 211100Z AUTO 02010KT 9999 BKN085/// 17/14 Q1022 NOSIG
Conditions at: NZAA (AUCKLAND INTL AR, NZ) observed 1100 UTC 21 April 2019
Temperature: 17.0°C (63°F)
Dewpoint: 14.0°C (57°F) [RH = 82%]
Pressure (altimeter): 30.18 inches Hg (1022.0 mb)
Winds: from the NNE (20 degrees) at 12 MPH (10 knots; 5.1 m/s)
Visibility: 6 or more miles (10+ km)
Ceiling: 8500 feet AGL
Clouds: broken clouds at 8500 feet AGL
Weather: no significant weather observed at this time

METAR text: NZAA 211030Z AUTO 01008KT 9999 FEW023/// SCT070/// BKN085/// 18/15 Q1022 NOSIG
Conditions at: NZAA (AUCKLAND INTL AR, NZ) observed 1030 UTC 21 April 2019
Temperature: 18.0°C (64°F)
Dewpoint: 15.0°C (59°F) [RH = 83%]
Pressure (altimeter): 30.18 inches Hg (1022.0 mb)
Winds: from the N (10 degrees) at 9 MPH (8 knots; 4.1 m/s)
Visibility: 6 or more miles (10+ km)
Ceiling: 8500 feet AGL
Clouds: few clouds at 2300 feet AGL
scattered clouds at 7000 feet AGL
broken clouds at 8500 feet AGL
Weather: no significant weather observed at this time

METAR text: NZAA 211000Z AUTO 02010KT 9999 OVC075/// 17/14 Q1022 NOSIG
Conditions at: NZAA (AUCKLAND INTL AR, NZ) observed 1000 UTC 21 April 2019
Temperature: 17.0°C (63°F)
Dewpoint: 14.0°C (57°F) [RH = 82%]
Pressure (altimeter): 30.18 inches Hg (1022.0 mb)
Winds: from the NNE (20 degrees) at 12 MPH (10 knots; 5.1 m/s)
Visibility: 6 or more miles (10+ km)
Ceiling: 7500 feet AGL
Clouds: overcast cloud deck at 7500 feet AGL
Weather: no significant weather observed at this time

METAR text: NZAA 210930Z AUTO 02013KT 9999 BKN070/// BKN080/// 18/14 Q1021 TEMPO 6000 SHRA FEW020TCU
Conditions at: NZAA (AUCKLAND INTL AR, NZ) observed 0930 UTC 21 April 2019
Temperature: 18.0°C (64°F)
Dewpoint: 14.0°C (57°F) [RH = 77%]
Pressure (altimeter): 30.15 inches Hg (1021.0 mb)
Winds: from the NNE (20 degrees) at 15 MPH (13 knots; 6.7 m/s)
Visibility: 6 or more miles (10+ km)
Ceiling: 7000 feet AGL
Clouds: broken clouds at 7000 feet AGL
broken clouds at 8000 feet AGL
Weather: no significant weather observed at this time

METAR text: NZAA 210900Z AUTO 01012KT 9999 BKN080/// 18/15 Q1021 TEMPO 6000 SHRA FEW020TCU
Conditions at: NZAA (AUCKLAND INTL AR, NZ) observed 0900 UTC 21 April 2019
Temperature: 18.0°C (64°F)
Dewpoint: 15.0°C (59°F) [RH = 83%]
Pressure (altimeter): 30.15 inches Hg (1021.0 mb)
Winds: from the N (10 degrees) at 14 MPH (12 knots; 6.2 m/s)
Visibility: 6 or more miles (10+ km)
Ceiling: 8000 feet AGL
Clouds: broken clouds at 8000 feet AGL
Weather: no significant weather observed at this time

METAR text: NZAA 210830Z AUTO 01011KT 9999 OVC080/// 18/14 Q1021 TEMPO 6000 SHRA FEW020TCU
Conditions at: NZAA (AUCKLAND INTL AR, NZ) observed 0830 UTC 21 April 2019
Temperature: 18.0°C (64°F)
Dewpoint: 14.0°C (57°F) [RH = 77%]
Pressure (altimeter): 30.15 inches Hg (1021.0 mb)
Winds: from the N (10 degrees) at 13 MPH (11 knots; 5.7 m/s)
Visibility: 6 or more miles (10+ km)
Ceiling: 8000 feet AGL
Clouds: overcast cloud deck at 8000 feet AGL
Weather: no significant weather observed at this time

METAR text: NZAA 210800Z AUTO 01013KT 9999 SCT025/// SCT049/// BKN075/// 19/14 Q1022 TEMPO 6000 SHRA FEW020TCU
Conditions at: NZAA (AUCKLAND INTL AR, NZ) observed 0800 UTC 21 April 2019
Temperature: 19.0°C (66°F)
Dewpoint: 14.0°C (57°F) [RH = 73%]
Pressure (altimeter): 30.18 inches Hg (1022.0 mb)
Winds: from the N (10 degrees) at 15 MPH (13 knots; 6.7 m/s)
Visibility: 6 or more miles (10+ km)
Ceiling: 7500 feet AGL
Clouds: scattered clouds at 2500 feet AGL
scattered clouds at 4900 feet AGL
broken clouds at 7500 feet AGL
Weather: no significant weather observed at this time

METAR text: NZAA 210730Z AUTO 01011KT 9999 BKN027/// BKN032/// BKN060/// 19/14 Q1022 TEMPO FM0800 6000 SHRA FEW020TCU
Conditions at: NZAA (AUCKLAND INTL AR, NZ) observed 0730 UTC 21 April 2019
Temperature: 19.0°C (66°F)
Dewpoint: 14.0°C (57°F) [RH = 73%]
Pressure (altimeter): 30.18 inches Hg (1022.0 mb)
Winds: from the N (10 degrees) at 13 MPH (11 knots; 5.7 m/s)
Visibility: 6 or more miles (10+ km)
Ceiling: 2700 feet AGL
Clouds: broken clouds at 2700 feet AGL
broken clouds at 3200 feet AGL
broken clouds at 6000 feet AGL
Weather: no significant weather observed at this time

METAR text: NZAA 210700Z AUTO 02011KT 9999 FEW025/// BKN065/// OVC085/// 19/14 Q1022 TEMPO FM0800 6000 SHRA FEW020TCU
Conditions at: NZAA (AUCKLAND INTL AR, NZ) observed 0700 UTC 21 April 2019
Temperature: 19.0°C (66°F)
Dewpoint: 14.0°C (57°F) [RH = 73%]
Pressure (altimeter): 30.18 inches Hg (1022.0 mb)
Winds: from the NNE (20 degrees) at 13 MPH (11 knots; 5.7 m/s)
Visibility: 6 or more miles (10+ km)
Ceiling: 6500 feet AGL
Clouds: few clouds at 2500 feet AGL
broken clouds at 6500 feet AGL
overcast cloud deck at 8500 feet AGL
Weather: no significant weather observed at this time

METAR text: NZAA 210630Z AUTO 02010KT 9999 FEW075/// BKN085/// 18/14 Q1022 TEMPO FM0800 6000 SHRA FEW020TCU
Conditions at: NZAA (AUCKLAND INTL AR, NZ) observed 0630 UTC 21 April 2019
Temperature: 18.0°C (64°F)
Dewpoint: 14.0°C (57°F) [RH = 77%]
Pressure (altimeter): 30.18 inches Hg (1022.0 mb)
Winds: from the NNE (20 degrees) at 12 MPH (10 knots; 5.1 m/s)
Visibility: 6 or more miles (10+ km)
Ceiling: 8500 feet AGL
Clouds: few clouds at 7500 feet AGL
broken clouds at 8500 feet AGL
Weather: no significant weather observed at this time

METAR text: NZAA 210600Z AUTO 02012KT 9999 FEW085/// 18/13 Q1022 NOSIG
Conditions at: NZAA (AUCKLAND INTL AR, NZ) observed 0600 UTC 21 April 2019
Temperature: 18.0°C (64°F)
Dewpoint: 13.0°C (55°F) [RH = 73%]
Pressure (altimeter): 30.18 inches Hg (1022.0 mb)
Winds: from the NNE (20 degrees) at 14 MPH (12 knots; 6.2 m/s)
Visibility: 6 or more miles (10+ km)
Ceiling: at least 12,000 feet AGL
Clouds: few clouds at 8500 feet AGL
Weather: no significant weather observed at this time

METAR text: NZAA 210530Z AUTO 02015KT 9999 NCD 19/14 Q1022 NOSIG
Conditions at: NZAA (AUCKLAND INTL AR, NZ) observed 0530 UTC 21 April 2019
Temperature: 19.0°C (66°F)
Dewpoint: 14.0°C (57°F) [RH = 73%]
Pressure (altimeter): 30.18 inches Hg (1022.0 mb)
Winds: from the NNE (20 degrees) at 17 MPH (15 knots; 7.7 m/s)
Visibility: 6 or more miles (10+ km)
Ceiling: at least 12,000 feet AGL
Clouds: sky clear below 12,000 feet AGL
Weather: no significant weather observed at this time

METAR text: NZAA 210500Z AUTO 01015KT 9999 NCD 19/14 Q1022 NOSIG
Conditions at: NZAA (AUCKLAND INTL AR, NZ) observed 0500 UTC 21 April 2019
Temperature: 19.0°C (66°F)
Dewpoint: 14.0°C (57°F) [RH = 73%]
Pressure (altimeter): 30.18 inches Hg (1022.0 mb)
Winds: from the N (10 degrees) at 17 MPH (15 knots; 7.7 m/s)
Visibility: 6 or more miles (10+ km)
Ceiling: at least 12,000 feet AGL
Clouds: sky clear below 12,000 feet AGL
Weather: no significant weather observed at this time

METAR text: NZAA 210430Z AUTO 01017KT 9999 NCD 20/14 Q1022 NOSIG
Conditions at: NZAA (AUCKLAND INTL AR, NZ) observed 0430 UTC 21 April 2019
Temperature: 20.0°C (68°F)
Dewpoint: 14.0°C (57°F) [RH = 68%]
Pressure (altimeter): 30.18 inches Hg (1022.0 mb)
Winds: from the N (10 degrees) at 20 MPH (17 knots; 8.7 m/s)
Visibility: 6 or more miles (10+ km)
Ceiling: at least 12,000 feet AGL
Clouds: sky clear below 12,000 feet AGL
Weather: no significant weather observed at this time

METAR text: NZAA 210400Z AUTO 01012KT 9999 FEW029/// 20/14 Q1022 NOSIG
Conditions at: NZAA (AUCKLAND INTL AR, NZ) observed 0400 UTC 21 April 2019
Temperature: 20.0°C (68°F)
Dewpoint: 14.0°C (57°F) [RH = 68%]
Pressure (altimeter): 30.18 inches Hg (1022.0 mb)
Winds: from the N (10 degrees) at 14 MPH (12 knots; 6.2 m/s)
Visibility: 6 or more miles (10+ km)
Ceiling: at least 12,000 feet AGL
Clouds: few clouds at 2900 feet AGL
Weather: no significant weather observed at this time

METAR text: NZAA 210330Z AUTO 02014KT 340V050 9999 SCT030/// 21/14 Q1022 NOSIG
Conditions at: NZAA (AUCKLAND INTL AR, NZ) observed 0330 UTC 21 April 2019
Temperature: 21.0°C (70°F)
Dewpoint: 14.0°C (57°F) [RH = 64%]
Pressure (altimeter): 30.18 inches Hg (1022.0 mb)
Winds: from the NNE (20 degrees) at 16 MPH (14 knots; 7.2 m/s)
Visibility: 6 or more miles (10+ km)
Ceiling: at least 12,000 feet AGL
Clouds: scattered clouds at 3000 feet AGL
Weather: no significant weather observed at this time

METAR text: NZAA 210300Z AUTO 02013KT 350V070 9999 FEW033/// BKN070/// BKN085/// 21/14 Q1022 NOSIG
Conditions at: NZAA (AUCKLAND INTL AR, NZ) observed 0300 UTC 21 April 2019
Temperature: 21.0°C (70°F)
Dewpoint: 14.0°C (57°F) [RH = 64%]
Pressure (altimeter): 30.18 inches Hg (1022.0 mb)
Winds: from the NNE (20 degrees) at 15 MPH (13 knots; 6.7 m/s)
Visibility: 6 or more miles (10+ km)
Ceiling: 7000 feet AGL
Clouds: few clouds at 3300 feet AGL
broken clouds at 7000 feet AGL
broken clouds at 8500 feet AGL
Weather: no significant weather observed at this time

METAR text: NZAA 210230Z AUTO 03013KT 9999 FEW036/// BKN075/// 21/13 Q1023 NOSIG
Conditions at: NZAA (AUCKLAND INTL AR, NZ) observed 0230 UTC 21 April 2019
Temperature: 21.0°C (70°F)
Dewpoint: 13.0°C (55°F) [RH = 60%]
Pressure (altimeter): 30.21 inches Hg (1023.0 mb)
Winds: from the NNE (30 degrees) at 15 MPH (13 knots; 6.7 m/s)
Visibility: 6 or more miles (10+ km)
Ceiling: 7500 feet AGL
Clouds: few clouds at 3600 feet AGL
broken clouds at 7500 feet AGL
Weather: no significant weather observed at this time

METAR text: NZAA 210200Z AUTO 02012KT 350V050 9999 NCD 20/13 Q1023 NOSIG
Conditions at: NZAA (AUCKLAND INTL AR, NZ) observed 0200 UTC 21 April 2019
Temperature: 20.0°C (68°F)
Dewpoint: 13.0°C (55°F) [RH = 64%]
Pressure (altimeter): 30.21 inches Hg (1023.0 mb)
Winds: from the NNE (20 degrees) at 14 MPH (12 knots; 6.2 m/s)
Visibility: 6 or more miles (10+ km)
Ceiling: at least 12,000 feet AGL
Clouds: sky clear below 12,000 feet AGL
Weather: no significant weather observed at this time

Forecast for: NZAA (AUCKLAND INTL AR, NZ)
Text: TAF NZAA 221102Z 2212/2312 04005KT 9999 -SHRA FEW020 BKN040
Forecast period: 1200 UTC 22 April 2019 to 1200 UTC 23 April 2019
Forecast type: FROM: standard forecast or significant change
Winds: from the NE (40 degrees) at 6 MPH (5 knots; 2.6 m/s)
Visibility: 6 or more miles 10+ km)
Ceiling: 4000 feet AGL
Clouds: few clouds at 2000 feet AGL
broken clouds at 4000 feet AGL
Weather: -SHRA  (light rain showers)
Text: TEMPO 2212/2218 4000 +SHRA BKN012 FEW020CB
Forecast period: 1200 to 1800 UTC 22 April 2019
Forecast type: TEMPORARY: The following changes expected for less than half the time period
Visibility: 2.49 miles (4.01 km)
Ceiling: 1200 feet AGL
Clouds: broken clouds at 1200 feet AGL
few clouds at 2000 feet AGL
Weather: +SHRA  (heavy rain showers)
Text: PROB30
Forecast period: 1200 to 1800 UTC 22 April 2019
Forecast type: TEMPORARY: The following changes expected for less than half the time period
Visibility: 1.55 miles (2.49 km)
Ceiling: 800 feet AGL
Clouds: broken clouds at 800 feet AGL
scattered clouds at 2000 feet AGL
Weather: TSRA TSGS  (rain associated with thunderstorm(s), small hail or graupel associated with thunderstorm(s))
Text: TEMPO 2212/2218 2500 TSRAGS BKN008 SCT020CB
Forecast period: 1800 to 2100 UTC 22 April 2019
Forecast type: PROBABLE: 30 percent likelihood of the following during this time
Visibility: 0.93 miles (1.50 km)
Ceiling: unknown
Clouds: missing
Weather: BR  (mist)
Text: PROB30 2218/2221 1500 BR
Forecast period: 0000 to 0700 UTC 23 April 2019
Forecast type: TEMPORARY: The following changes expected for less than half the time period
Visibility: 4 miles (6 km)
Ceiling: at least 12,000 feet AGL
Clouds: few clouds at 2000 feet AGL
Weather: SHRA  (rain showers)
Text: TEMPO 2300/2307 6000 SHRA FEW020TCU
Forecast period: 0000 to 0600 UTC 23 April 2019
Forecast type: TEMPORARY: The following changes expected for less than half the time period
Visibility: 1.55 miles (2.49 km)
Ceiling: 1200 feet AGL
Clouds: broken clouds at 1200 feet AGL
few clouds at 2000 feet AGL
Weather: TSRA TSGS  (rain associated with thunderstorm(s), small hail or graupel associated with thunderstorm(s))